createdAt,value
2023-01-19T00:00:37.188Z,99263.06
2023-01-19T00:03:38.893Z,99277.59
2023-01-19T00:06:40.587Z,99277.22
2023-01-19T00:09:43.826Z,99273.56
2023-01-19T00:12:45.597Z,99276.31
2023-01-19T00:15:47.336Z,99271.34
2023-01-19T00:18:51.039Z,99277.22
2023-01-19T00:21:52.911Z,99272.97
2023-01-19T00:24:55.866Z,99278.69
2023-01-19T00:27:58.096Z,99281.47
2023-01-19T00:31:00.978Z,99283.16
2023-01-19T00:34:03.187Z,99282.94
2023-01-19T00:37:05.352Z,99291.56
2023-01-19T00:40:10.555Z,99291.56
2023-01-19T00:43:12.336Z,99291.38
2023-01-19T00:46:14.042Z,99301.19
2023-01-19T00:49:15.716Z,99301.91
2023-01-19T00:52:17.369Z,99298.97
2023-01-19T00:55:20.443Z,99310.22
2023-01-19T00:58:22.650Z,99304.69
2023-01-19T01:01:44.747Z,99299.94
2023-01-19T01:04:46.182Z,99314.13
2023-01-19T01:07:49.504Z,99314.13
2023-01-19T01:10:52.871Z,99312.63
2023-01-19T01:13:54.791Z,99314.69
2023-01-19T01:16:56.914Z,99312.31
2023-01-19T01:19:59.618Z,99323.56
2023-01-19T01:23:01.809Z,99325.78
2023-01-19T01:26:05.971Z,99321.69
2023-01-19T01:29:08.358Z,99331.88
2023-01-19T01:32:10.440Z,99322.44
2023-01-19T01:35:14.194Z,99327.81
2023-01-19T01:38:16.632Z,99340.72
2023-01-19T01:41:21.139Z,99323.56
2023-01-19T01:44:50.037Z,99330.56
2023-01-19T01:47:53.032Z,99339.06
2023-01-19T01:51:26.823Z,99339.97
2023-01-19T01:54:31.259Z,99335.91
2023-01-19T01:57:36.899Z,99332.59
2023-01-19T02:00:58.444Z,99331.88
2023-01-19T02:04:00.418Z,99331.09
2023-01-19T02:07:21.001Z,99333.31
2023-01-19T02:10:41.621Z,99333.16
2023-01-19T02:13:46.800Z,99334.78
2023-01-19T02:16:48.857Z,99336.06
2023-01-19T02:19:50.495Z,99332.22
2023-01-19T02:22:52.809Z,99338.31
2023-01-19T02:25:56.097Z,99332.75
2023-01-19T02:29:02.361Z,99329.63
2023-01-19T02:32:05.666Z,99325.22
2023-01-19T02:35:07.918Z,99329.84
2023-01-19T02:38:11.036Z,99325.75
2023-01-19T02:41:18.555Z,99327.41
2023-01-19T02:44:22.322Z,99321.72
2023-01-19T02:47:24.406Z,99323.56
2023-01-19T02:50:38.355Z,99323.75
2023-01-19T02:54:06.141Z,99327.78
2023-01-19T02:57:21.716Z,99325.03
2023-01-19T03:00:36.729Z,99322.06
2023-01-19T03:03:49.457Z,99328.53
2023-01-19T03:07:00.667Z,99325.56
2023-01-19T03:10:07.886Z,99328.69
2023-01-19T03:13:16.467Z,99329.81
2023-01-19T03:16:22.577Z,99332.03
2023-01-19T03:19:28.515Z,99327.41
2023-01-19T03:22:30.903Z,99337.38
2023-01-19T03:25:36.914Z,99343.06
2023-01-19T03:28:42.274Z,99337.38
2023-01-19T03:31:45.805Z,99342.16
2023-01-19T03:34:50.167Z,99348.63
2023-01-19T03:37:56.024Z,99356.16
2023-01-19T03:41:01.786Z,99353.22
2023-01-19T03:44:06.205Z,99353.03
2023-01-19T03:47:11.488Z,99351.75
2023-01-19T03:50:20.611Z,99361.53
2023-01-19T03:53:25.529Z,99359.13
2023-01-19T03:56:27.281Z,99356.91
2023-01-19T03:59:30.489Z,99359.31
2023-01-19T04:02:32.142Z,99363.75
2023-01-19T04:05:34.248Z,99352.50
2023-01-19T04:08:36.210Z,99358.19
2023-01-19T04:11:38.089Z,99354.72
2023-01-19T04:14:41.157Z,99358.03
2023-01-19T04:17:42.823Z,99355.09
2023-01-19T04:20:44.566Z,99356.75
2023-01-19T04:23:46.246Z,99355.63
2023-01-19T04:26:47.904Z,99352.31
2023-01-19T04:29:51.221Z,99349.00
2023-01-19T04:32:53.645Z,99346.81
2023-01-19T04:35:56.139Z,99343.09
2023-01-19T04:38:57.797Z,99347.50
2023-01-19T04:42:00.747Z,99346.41
2023-01-19T04:45:04.525Z,99345.09
2023-01-19T04:48:07.363Z,99343.06
2023-01-19T04:51:09.055Z,99353.03
2023-01-19T04:54:10.837Z,99351.03
2023-01-19T04:57:12.621Z,99349.53
2023-01-19T05:00:18.707Z,99358.00
2023-01-19T05:03:20.626Z,99366.13
2023-01-19T05:06:22.804Z,99363.16
2023-01-19T05:09:24.442Z,99367.03
2023-01-19T05:12:26.649Z,99362.41
2023-01-19T05:15:29.765Z,99359.81
2023-01-19T05:18:36.637Z,99368.69
2023-01-19T05:21:38.651Z,99361.69
2023-01-19T05:24:40.303Z,99360.41
2023-01-19T05:27:42.025Z,99365.38
2023-01-19T05:30:45.171Z,99369.78
2023-01-19T05:33:48.158Z,99379.00
2023-01-19T05:36:49.981Z,99377.91
2023-01-19T05:39:52.755Z,99375.16
2023-01-19T05:42:54.503Z,99380.88
2023-01-19T05:45:57.438Z,99377.88
2023-01-19T05:49:01.879Z,99383.78
2023-01-19T05:52:03.805Z,99378.59
2023-01-19T05:55:06.569Z,99378.59
2023-01-19T05:58:08.310Z,99377.50
2023-01-19T06:01:11.996Z,99370.69
2023-01-19T06:04:13.697Z,99372.91
2023-01-19T06:07:15.769Z,99368.69
2023-01-19T06:10:17.635Z,99380.09
2023-01-19T06:13:19.376Z,99388.06
2023-01-19T06:16:22.419Z,99377.75
2023-01-19T06:19:24.397Z,99388.78
2023-01-19T06:22:26.118Z,99398.00
2023-01-19T06:25:27.851Z,99404.84
2023-01-19T06:28:29.846Z,99412.03
2023-01-19T06:31:32.977Z,99410.00
2023-01-19T06:34:34.818Z,99404.13
2023-01-19T06:37:37.069Z,99414.44
2023-01-19T06:40:39.108Z,99419.78
2023-01-19T06:43:40.776Z,99420.91
2023-01-19T06:46:43.923Z,99414.84
2023-01-19T06:49:45.585Z,99431.59
2023-01-19T06:52:49.734Z,99427.72
2023-01-19T06:55:51.387Z,99426.59
2023-01-19T06:58:54.076Z,99424.03
2023-01-19T07:01:57.305Z,99428.84
2023-01-19T07:04:59.352Z,99432.53
2023-01-19T07:08:01.194Z,99432.31
2023-01-19T07:11:25.005Z,99432.53
2023-01-19T07:14:33.512Z,99438.78
2023-01-19T07:17:36.615Z,99432.91
2023-01-19T07:20:38.531Z,99438.44
2023-01-19T07:23:40.309Z,99441.19
2023-01-19T07:26:42.245Z,99450.06
2023-01-19T07:29:43.930Z,99450.41
2023-01-19T07:32:47.120Z,99456.50
2023-01-19T07:35:50.095Z,99466.09
2023-01-19T07:38:51.804Z,99473.47
2023-01-19T07:41:53.568Z,99475.69
2023-01-19T07:44:58.276Z,99484.53
2023-01-19T07:48:01.699Z,99482.91
2023-01-19T07:51:05.793Z,99486.19
2023-01-19T07:54:08.388Z,99493.78
2023-01-19T07:57:10.037Z,99497.81
2023-01-19T08:00:14.459Z,99495.25
2023-01-19T08:03:18.614Z,99494.84
2023-01-19T08:06:22.344Z,99503.19
2023-01-19T08:09:24.481Z,99493.41
2023-01-19T08:12:26.228Z,99496.16
2023-01-19T08:15:28.039Z,99497.28
2023-01-19T08:18:31.132Z,99497.66
2023-01-19T08:21:33.348Z,99490.47
2023-01-19T08:24:35.031Z,99488.06
2023-01-19T08:27:36.755Z,99481.94
2023-01-19T08:30:38.865Z,99494.53
2023-01-19T08:33:42.968Z,99492.13
2023-01-19T08:36:44.811Z,99494.13
2023-01-19T08:39:46.576Z,99498.41
2023-01-19T08:42:48.428Z,99497.84
2023-01-19T08:45:51.533Z,99491.19
2023-01-19T08:48:54.901Z,99488.97
2023-01-19T08:51:56.638Z,99495.63
2023-01-19T08:54:58.349Z,99497.28
2023-01-19T08:58:00.554Z,99493.41
2023-01-19T09:01:03.883Z,99491.56
2023-01-19T09:04:07.598Z,99496.72
2023-01-19T09:07:09.532Z,99503.38
2023-01-19T09:10:12.224Z,99500.78
2023-01-19T09:13:15.312Z,99500.22
2023-01-19T09:16:17.030Z,99494.69
2023-01-19T09:19:20.091Z,99496.91
2023-01-19T09:22:21.853Z,99502.81
2023-01-19T09:25:23.768Z,99492.88
2023-01-19T09:28:26.178Z,99495.28
2023-01-19T09:31:28.041Z,99492.66
2023-01-19T09:34:31.417Z,99488.59
2023-01-19T09:37:33.333Z,99499.13
2023-01-19T09:40:37.037Z,99492.13
2023-01-19T09:43:41.448Z,99493.41
2023-01-19T09:46:43.205Z,99489.91
2023-01-19T09:49:52.472Z,99494.69
2023-01-19T09:53:20.740Z,99494.69
2023-01-19T09:56:23.378Z,99494.13
2023-01-19T09:59:28.716Z,99502.75
2023-01-19T10:02:37.046Z,99498.66
2023-01-19T10:05:44.759Z,99499.91
2023-01-19T10:08:55.564Z,99502.84
2023-01-19T10:12:02.371Z,99499.53
2023-01-19T10:15:18.068Z,99509.78
2023-01-19T10:18:25.321Z,99505.75
2023-01-19T10:21:33.687Z,99505.00
2023-01-19T10:24:40.270Z,99507.31
2023-01-19T10:27:42.836Z,99502.31
2023-01-19T10:30:46.753Z,99506.47
2023-01-19T10:33:49.415Z,99514.94
2023-01-19T10:36:59.010Z,99515.47
2023-01-19T10:40:15.812Z,99503.75
2023-01-19T10:43:46.683Z,99515.56
2023-01-19T10:46:49.908Z,99518.22
2023-01-19T10:49:52.293Z,99510.00
2023-01-19T10:52:57.394Z,99507.78
2023-01-19T10:56:15.511Z,99513.50
2023-01-19T10:59:31.832Z,99510.19
2023-01-19T11:02:33.933Z,99508.72
2023-01-19T11:05:35.918Z,99508.53
2023-01-19T11:08:39.357Z,99505.00
2023-01-19T11:11:46.975Z,99512.38
2023-01-19T11:14:50.594Z,99502.41
2023-01-19T11:17:53.682Z,99502.72
2023-01-19T11:20:57.601Z,99505.00
2023-01-19T11:24:05.275Z,99511.59
2023-01-19T11:27:07.156Z,99508.53
2023-01-19T11:30:19.547Z,99508.28
2023-01-19T11:33:26.927Z,99512.56
2023-01-19T11:36:30.352Z,99519.19
2023-01-19T11:39:46.627Z,99505.06
2023-01-19T11:42:48.776Z,99499.09
2023-01-19T11:45:51.534Z,99498.16
2023-01-19T11:49:01.052Z,99503.28
2023-01-19T11:52:06.460Z,99496.25
2023-01-19T11:55:17.587Z,99490.00
2023-01-19T11:58:20.415Z,99493.13
2023-01-19T12:01:24.783Z,99489.25
2023-01-19T12:04:31.024Z,99493.34
2023-01-19T12:07:35.306Z,99492.59
2023-01-19T12:10:43.527Z,99499.94
2023-01-19T12:13:46.458Z,99495.72
2023-01-19T12:16:51.164Z,99492.34
2023-01-19T12:20:00.850Z,99493.66
2023-01-19T12:23:14.988Z,99489.59
2023-01-19T12:26:27.871Z,99484.97
2023-01-19T12:29:33.214Z,99483.28
2023-01-19T12:32:36.733Z,99485.03
2023-01-19T12:35:56.901Z,99480.44
2023-01-19T12:39:02.694Z,99483.38
2023-01-19T12:42:13.048Z,99477.81
2023-01-19T12:45:17.576Z,99489.38
2023-01-19T12:48:25.192Z,99479.63
2023-01-19T12:51:27.061Z,99491.22
2023-01-19T12:54:31.651Z,99483.34
2023-01-19T12:57:39.104Z,99480.97
2023-01-19T13:00:42.820Z,99480.09
2023-01-19T13:03:58.240Z,99487.91
2023-01-19T13:07:10.207Z,99480.13
2023-01-19T13:10:49.535Z,99482.69
2023-01-19T13:14:33.041Z,99485.16
2023-01-19T13:17:47.142Z,99475.75
2023-01-19T13:20:54.278Z,99490.34
2023-01-19T13:23:58.291Z,99494.56
2023-01-19T13:27:03.447Z,99483.28
2023-01-19T13:30:12.060Z,99492.41
2023-01-19T13:33:20.332Z,99482.91
2023-01-19T13:36:27.581Z,99488.47
2023-01-19T13:39:34.893Z,99491.63
2023-01-19T13:42:40.078Z,99493.09
2023-01-19T13:45:49.878Z,99494.22
2023-01-19T13:48:56.839Z,99501.09
2023-01-19T13:52:16.869Z,99495.69
2023-01-19T13:55:20.535Z,99500.84
2023-01-19T13:58:22.955Z,99508.19
2023-01-19T14:01:28.700Z,99508.34
2023-01-19T14:04:33.764Z,99511.28
2023-01-19T14:07:35.624Z,99514.06
2023-01-19T14:10:39.482Z,99520.09
2023-01-19T14:13:44.742Z,99510.25
2023-01-19T14:16:46.244Z,99512.59
2023-01-19T14:19:51.097Z,99516.81
2023-01-19T14:22:52.831Z,99513.34
2023-01-19T14:25:54.729Z,99518.91
2023-01-19T14:28:56.387Z,99515.44
2023-01-19T14:32:13.725Z,99513.41
2023-01-19T14:35:24.316Z,99509.50
2023-01-19T14:38:25.958Z,99512.44
2023-01-19T14:41:35.967Z,99515.78
2023-01-19T14:44:39.700Z,99522.06
2023-01-19T14:47:43.518Z,99522.28
2023-01-19T14:51:02.485Z,99518.97
2023-01-19T14:54:05.278Z,99528.78
2023-01-19T14:57:12.603Z,99525.28
2023-01-19T15:00:18.100Z,99530.47
2023-01-19T15:03:19.937Z,99532.16
2023-01-19T15:06:24.667Z,99528.09
2023-01-19T15:09:26.803Z,99532.94
2023-01-19T15:12:29.244Z,99532.56
2023-01-19T15:15:35.589Z,99530.91
2023-01-19T15:18:38.430Z,99538.50
2023-01-19T15:21:42.227Z,99534.06
2023-01-19T15:24:44.350Z,99533.56
2023-01-19T15:27:47.371Z,99533.72
2023-01-19T15:30:49.209Z,99539.28
2023-01-19T15:33:51.265Z,99538.91
2023-01-19T15:36:54.286Z,99544.88
2023-01-19T15:39:55.913Z,99554.50
2023-01-19T15:42:57.632Z,99548.78
2023-01-19T15:46:01.808Z,99550.13
2023-01-19T15:49:05.776Z,99562.38
2023-01-19T15:52:08.904Z,99561.44
2023-01-19T15:55:11.738Z,99559.63
2023-01-19T15:58:14.089Z,99567.78
2023-01-19T16:01:18.446Z,99564.09
2023-01-19T16:04:20.237Z,99570.19
2023-01-19T16:07:23.396Z,99571.28
2023-01-19T16:10:25.599Z,99567.06
2023-01-19T16:13:29.917Z,99577.03
2023-01-19T16:16:31.979Z,99580.16
2023-01-19T16:19:33.758Z,99580.00
2023-01-19T16:22:37.122Z,99583.50
2023-01-19T16:25:38.881Z,99587.56
2023-01-19T16:28:42.237Z,99584.06
2023-01-19T16:31:45.532Z,99589.97
2023-01-19T16:34:47.284Z,99591.06
2023-01-19T16:37:51.653Z,99592.00
2023-01-19T16:40:53.312Z,99594.03
2023-01-19T16:43:56.448Z,99594.75
2023-01-19T16:46:58.135Z,99592.72
2023-01-19T16:49:59.800Z,99591.06
2023-01-19T16:53:02.807Z,99587.94
2023-01-19T16:56:06.413Z,99590.34
2023-01-19T16:59:11.419Z,99597.00
2023-01-19T17:02:13.234Z,99590.88
2023-01-19T17:05:15.046Z,99593.66
2023-01-19T17:08:19.794Z,99591.44
2023-01-19T17:11:23.168Z,99601.06
2023-01-19T17:14:24.840Z,99596.25
2023-01-19T17:17:26.598Z,99596.63
2023-01-19T17:20:28.292Z,99601.78
2023-01-19T17:23:31.729Z,99595.13
2023-01-19T17:26:33.813Z,99599.38
2023-01-19T17:29:35.601Z,99602.69
2023-01-19T17:32:37.360Z,99600.50
2023-01-19T17:35:39.377Z,99607.34
2023-01-19T17:38:42.574Z,99599.75
2023-01-19T17:41:44.392Z,99606.22
2023-01-19T17:44:46.207Z,99608.44
2023-01-19T17:47:49.059Z,99618.59
2023-01-19T17:50:50.735Z,99617.09
2023-01-19T17:53:55.112Z,99615.25
2023-01-19T17:56:56.746Z,99614.50
2023-01-19T17:59:58.331Z,99617.09
2023-01-19T18:03:00.119Z,99621.88
2023-01-19T18:06:02.264Z,99618.03
2023-01-19T18:09:07.306Z,99619.31
2023-01-19T18:12:09.090Z,99628.75
2023-01-19T18:15:11.891Z,99628.38
2023-01-19T18:18:13.933Z,99624.13
2023-01-19T18:21:16.312Z,99635.00
2023-01-19T18:24:19.440Z,99631.88
2023-01-19T18:27:21.946Z,99634.47
2023-01-19T18:30:23.932Z,99629.28
2023-01-19T18:33:26.415Z,99635.56
2023-01-19T18:36:28.733Z,99640.00
2023-01-19T18:39:31.922Z,99633.72
2023-01-19T18:42:34.052Z,99629.09
2023-01-19T18:45:37.107Z,99639.81
2023-01-19T18:48:39.348Z,99633.88
2023-01-19T18:51:42.117Z,99639.63
2023-01-19T18:54:45.095Z,99639.25
2023-01-19T18:57:47.056Z,99631.50
2023-01-19T19:00:49.770Z,99629.66
2023-01-19T19:03:52.222Z,99632.41
2023-01-19T19:06:53.966Z,99637.59
2023-01-19T19:09:57.067Z,99649.75
2023-01-19T19:12:58.941Z,99639.78
2023-01-19T19:16:04.096Z,99641.09
2023-01-19T19:19:06.090Z,99651.59
2023-01-19T19:22:07.807Z,99643.31
2023-01-19T19:25:11.087Z,99649.19
2023-01-19T19:28:12.779Z,99652.88
2023-01-19T19:31:18.009Z,99645.50
2023-01-19T19:34:19.675Z,99641.63
2023-01-19T19:37:21.321Z,99647.88
2023-01-19T19:40:25.021Z,99651.38
2023-01-19T19:43:26.969Z,99653.41
2023-01-19T19:46:28.943Z,99656.53
2023-01-19T19:49:30.607Z,99653.41
2023-01-19T19:52:32.400Z,99665.59
2023-01-19T19:55:35.490Z,99660.63
2023-01-19T19:58:39.160Z,99657.06
2023-01-19T20:01:43.614Z,99657.81
2023-01-19T20:04:45.728Z,99657.25
2023-01-19T20:07:48.254Z,99665.19
2023-01-19T20:10:51.402Z,99662.41
2023-01-19T20:13:53.977Z,99665.72
2023-01-19T20:16:55.656Z,99663.31
2023-01-19T20:19:59.114Z,99657.63
2023-01-19T20:23:01.367Z,99663.34
2023-01-19T20:26:07.126Z,99667.41
2023-01-19T20:29:10.837Z,99661.53
2023-01-19T20:32:12.716Z,99669.47
2023-01-19T20:35:15.560Z,99671.13
2023-01-19T20:38:17.368Z,99661.34
2023-01-19T20:41:21.643Z,99667.78
2023-01-19T20:44:25.980Z,99660.97
2023-01-19T20:47:27.708Z,99673.72
2023-01-19T20:50:29.490Z,99672.00
2023-01-19T20:53:32.112Z,99667.53
2023-01-19T20:56:35.192Z,99672.47
2023-01-19T20:59:38.266Z,99682.09
2023-01-19T21:02:39.944Z,99684.88
2023-01-19T21:05:41.657Z,99686.72
2023-01-19T21:08:43.922Z,99689.13
2023-01-19T21:11:47.018Z,99697.03
2023-01-19T21:14:48.721Z,99690.78
2023-01-19T21:17:50.353Z,99693.41
2023-01-19T21:20:52.096Z,99688.97
2023-01-19T21:23:55.986Z,99693.06
2023-01-19T21:26:59.349Z,99691.38
2023-01-19T21:30:02.422Z,99702.78
2023-01-19T21:33:05.064Z,99699.13
2023-01-19T21:36:08.396Z,99698.56
2023-01-19T21:39:10.235Z,99715.16
2023-01-19T21:42:13.375Z,99697.28
2023-01-19T21:45:15.317Z,99712.78
2023-01-19T21:48:17.875Z,99706.16
2023-01-19T21:51:19.516Z,99717.81
2023-01-19T21:54:21.467Z,99721.84
2023-01-19T21:57:24.752Z,99725.75
2023-01-19T22:00:27.057Z,99719.06
2023-01-19T22:03:29.395Z,99722.38
2023-01-19T22:06:31.063Z,99728.25
2023-01-19T22:09:33.657Z,99725.91
2023-01-19T22:12:38.117Z,99732.53
2023-01-19T22:15:39.949Z,99737.50
2023-01-19T22:18:42.968Z,99739.47
2023-01-19T22:21:44.643Z,99742.06
2023-01-19T22:24:49.589Z,99747.25
2023-01-19T22:27:52.592Z,99746.50
2023-01-19T22:30:54.434Z,99749.25
2023-01-19T22:33:57.021Z,99749.59
2023-01-19T22:36:58.797Z,99747.09
2023-01-19T22:40:00.544Z,99760.22
2023-01-19T22:43:03.751Z,99753.19
2023-01-19T22:46:08.532Z,99756.91
2023-01-19T22:49:13.192Z,99758.19
2023-01-19T22:52:14.890Z,99750.59
2023-01-19T22:55:16.494Z,99760.06
2023-01-19T22:58:21.428Z,99762.50
2023-01-19T23:01:24.901Z,99754.00
2023-01-19T23:04:26.558Z,99751.03
2023-01-19T23:07:28.223Z,99746.06
2023-01-19T23:10:30.891Z,99754.72
2023-01-19T23:13:34.436Z,99751.94
2023-01-19T23:16:36.507Z,99755.16
2023-01-19T23:19:38.096Z,99756.38
2023-01-19T23:22:40.130Z,99751.41
2023-01-19T23:25:41.770Z,99761.38
2023-01-19T23:28:45.987Z,99753.19
2023-01-19T23:31:49.566Z,99758.13
2023-01-19T23:34:51.211Z,99769.03
2023-01-19T23:37:52.938Z,99763.09
2023-01-19T23:40:56.975Z,99762.16
2023-01-19T23:44:00.493Z,99764.84
2023-01-19T23:47:02.169Z,99768.66
2023-01-19T23:50:05.471Z,99774.72
2023-01-19T23:53:07.220Z,99778.19
2023-01-19T23:56:10.206Z,99783.00
2023-01-19T23:59:15.651Z,99781.13
